aviador You're here:

GMMI Decoded Metar

ESSADOUIRA in MOROCCO
Report Time2017-08-06 08:00:00
UTC Time2017-08-22 16:34:46
Flight Rules Old
Wind260° at 04 kt
W.Decomp.*RWY 34: 0.9 kt HW 3.9 kt LCW
W.Rank260° ranks 13
Current wind is below 260° avg. (7.0)
Visibility6000 m
Phenomena:N/A
Clouds:N/A
Expected CloudBase > 3,200 ft AGL from Temp-Dew spread
CeilingNone
Temp26°C (ISA +11)
Dew Point18°C (61% RH)
QNH1010 hPa
Density Alt1,677 ft
Elevation26 ft
Report Wrong Elevation
Raw Report
METAR GMMI 060800Z 26004KT 6000 NSC 26/18 Q1010 NOSIG=

Extra information for GMMI:More info

Metar Taf Metar & Taf Last 4 Metars F.Rules Stats Wind Profile Meteogram Temp Stats Airport Information Weather charts Add Link Nearby VenuesMetar ALERT Operation Metar Decoded Social comments